Vernon Hills, Illinois
Current Conditions -  °F | °C
As of 12:52 PM on Monday 20 Oct 2014 (Local Time) from KPWK Reporting Station
Few Clouds Few Clouds  
Wind Chill: 65°   Ceiling: Unl
Heat Index: 65°   Visibility: 10mi
Dew Point: 48°   Wind: 10mph
Humidity: 54%   Direction: 320°NW
Pressure: 29.85"   Gusts: NA
Location:  42.22°N, 87.97°W
Report Text: KPWK 201752Z 32009KT 10SM FEW036 18/09 A2985 RMK AO2 SLP107 T01830089 10183 20089 58001
Loading
Personal Weather Stations






























Interactive Weather Map
Tropical Storm Tracking
New forecast layout! Learn more

10-Day Weather Forecast

Advertisements
Track Severe Weather on mobile